createdAt,value
2023-04-26T00:01:55.593Z,9.20
2023-04-26T00:04:32.322Z,9.10
2023-04-26T00:07:32.375Z,9.10
2023-04-26T00:10:24.999Z,9.20
2023-04-26T00:12:56.287Z,9.20
2023-04-26T00:15:49.003Z,9.20
2023-04-26T00:18:23.257Z,9.24
2023-04-26T00:20:57.064Z,9.20
2023-04-26T00:23:25.171Z,9.20
2023-04-26T00:26:01.502Z,9.20
2023-04-26T00:28:32.847Z,9.20
2023-04-26T00:31:09.093Z,9.10
2023-04-26T00:33:40.126Z,9.10
2023-04-26T00:36:27.452Z,9.10
2023-04-26T00:39:10.415Z,9.10
2023-04-26T00:41:47.806Z,9.08
2023-04-26T00:44:18.959Z,9.00
2023-04-26T00:47:03.464Z,9.00
2023-04-26T00:49:53.968Z,9.00
2023-04-26T00:52:32.199Z,8.90
2023-04-26T00:55:00.570Z,8.90
2023-04-26T00:57:39.887Z,8.90
2023-04-26T01:00:12.004Z,8.90
2023-04-26T01:02:45.936Z,8.80
2023-04-26T01:05:19.161Z,8.80
2023-04-26T01:07:51.154Z,8.80
2023-04-26T01:10:27.017Z,8.80
2023-04-26T01:12:57.986Z,8.70
2023-04-26T01:15:30.596Z,8.78
2023-04-26T01:18:01.864Z,8.70
2023-04-26T01:20:34.968Z,8.70
2023-04-26T01:23:06.240Z,8.64
2023-04-26T01:25:56.324Z,8.60
2023-04-26T01:28:29.919Z,8.60
2023-04-26T01:31:04.216Z,8.60
2023-04-26T01:33:40.712Z,8.60
2023-04-26T01:36:24.828Z,8.60
2023-04-26T01:39:14.585Z,8.60
2023-04-26T01:42:04.193Z,8.58
2023-04-26T01:44:34.052Z,8.50
2023-04-26T01:47:10.941Z,8.50
2023-04-26T01:49:50.877Z,8.50
2023-04-26T01:52:23.099Z,8.44
2023-04-26T01:55:05.120Z,8.40
2023-04-26T01:57:36.487Z,8.42
2023-04-26T02:00:41.672Z,8.40
2023-04-26T02:03:26.263Z,8.38
2023-04-26T02:06:00.954Z,8.30
2023-04-26T02:08:36.096Z,8.24
2023-04-26T02:11:07.287Z,8.20
2023-04-26T02:13:51.239Z,8.20
2023-04-26T02:16:47.362Z,8.20
2023-04-26T02:19:18.079Z,8.10
2023-04-26T02:21:58.943Z,8.10
2023-04-26T02:24:33.517Z,8.10
2023-04-26T02:27:06.979Z,8.10
2023-04-26T02:29:55.538Z,8.18
2023-04-26T02:32:28.466Z,8.10
2023-04-26T02:35:17.971Z,8.10
2023-04-26T02:38:12.685Z,8.10
2023-04-26T02:41:18.818Z,8.06
2023-04-26T02:43:52.657Z,8.00
2023-04-26T02:47:24.473Z,8.00
2023-04-26T02:51:07.461Z,7.96
2023-04-26T02:54:56.594Z,7.96
2023-04-26T02:58:46.827Z,8.00
2023-04-26T03:02:26.016Z,8.00
2023-04-26T03:06:05.803Z,8.00
2023-04-26T03:09:40.049Z,8.00
2023-04-26T03:13:29.306Z,8.00
2023-04-26T03:17:21.355Z,8.00
2023-04-26T03:21:10.451Z,8.00
2023-04-26T03:24:53.124Z,8.00
2023-04-26T03:28:32.136Z,8.00
2023-04-26T03:32:20.972Z,8.00
2023-04-26T03:36:10.050Z,8.10
2023-04-26T03:39:49.571Z,8.10
2023-04-26T03:43:22.567Z,8.10
2023-04-26T03:47:01.967Z,8.20
2023-04-26T03:50:19.344Z,8.20
2023-04-26T03:53:41.819Z,8.30
2023-04-26T03:56:40.321Z,8.40
2023-04-26T04:00:08.438Z,8.50
2023-04-26T04:03:27.045Z,8.60
2023-04-26T04:07:10.289Z,8.70
2023-04-26T04:11:01.301Z,8.90
2023-04-26T04:14:43.050Z,9.10
2023-04-26T04:18:35.490Z,9.20
2023-04-26T04:21:24.395Z,9.30
2023-04-26T04:25:13.612Z,9.50
2023-04-26T04:28:35.916Z,9.60
2023-04-26T04:31:50.445Z,9.70
2023-04-26T04:35:39.616Z,9.94
2023-04-26T04:39:08.571Z,10.20
2023-04-26T04:42:20.325Z,10.40
2023-04-26T04:46:02.666Z,10.64
2023-04-26T04:49:44.712Z,10.82
2023-04-26T04:53:17.954Z,11.00
2023-04-26T04:57:07.388Z,11.24
2023-04-26T05:00:56.648Z,11.50
2023-04-26T05:04:45.758Z,11.70
2023-04-26T05:08:17.891Z,12.00
2023-04-26T05:12:07.190Z,12.24
2023-04-26T05:15:46.544Z,12.40
2023-04-26T05:19:35.684Z,12.50
2023-04-26T05:22:44.728Z,12.60
2023-04-26T05:26:24.503Z,12.90
2023-04-26T05:30:12.273Z,13.30
2023-04-26T05:33:37.655Z,14.04
2023-04-26T05:36:32.937Z,15.24
2023-04-26T05:39:21.530Z,16.58
2023-04-26T05:41:59.797Z,17.68
2023-04-26T05:44:49.024Z,18.76
2023-04-26T05:47:18.325Z,19.80
2023-04-26T05:49:48.859Z,20.94
2023-04-26T05:52:26.046Z,21.62
2023-04-26T05:55:28.629Z,22.10
2023-04-26T05:58:02.486Z,22.20
2023-04-26T06:00:45.313Z,21.68
2023-04-26T06:03:17.267Z,20.90
2023-04-26T06:05:53.766Z,20.30
2023-04-26T06:08:25.125Z,19.84
2023-04-26T06:11:05.508Z,19.30
2023-04-26T06:13:57.854Z,19.30
2023-04-26T06:16:43.018Z,19.20
2023-04-26T06:19:24.082Z,19.00
2023-04-26T06:21:57.378Z,18.90
2023-04-26T06:24:30.306Z,18.70
2023-04-26T06:27:09.793Z,18.76
2023-04-26T06:29:41.811Z,18.88
2023-04-26T06:32:35.290Z,18.98
2023-04-26T06:35:14.556Z,19.00
2023-04-26T06:38:06.155Z,19.12
2023-04-26T06:40:55.433Z,19.50
2023-04-26T06:43:46.790Z,19.50
2023-04-26T06:46:45.939Z,19.50
2023-04-26T06:49:46.518Z,19.80
2023-04-26T06:52:31.307Z,19.86
2023-04-26T06:55:25.363Z,19.92
2023-04-26T06:58:15.798Z,20.40
2023-04-26T07:01:29.394Z,20.50
2023-04-26T07:04:18.818Z,20.52
2023-04-26T07:07:15.616Z,21.00
2023-04-26T07:10:06.006Z,21.48
2023-04-26T07:12:54.819Z,21.82
2023-04-26T07:15:52.281Z,22.50
2023-04-26T07:18:52.972Z,23.68
2023-04-26T07:22:13.730Z,25.16
2023-04-26T07:25:08.345Z,27.12
2023-04-26T07:28:22.317Z,28.26
2023-04-26T07:30:53.525Z,28.80
2023-04-26T07:33:36.528Z,28.64
2023-04-26T07:36:10.604Z,29.74
2023-04-26T07:38:42.445Z,30.40
2023-04-26T07:41:17.714Z,30.58
2023-04-26T07:44:00.839Z,31.38
2023-04-26T07:46:36.668Z,32.48
2023-04-26T07:49:10.918Z,33.10
2023-04-26T07:52:05.421Z,32.90
2023-04-26T07:54:50.145Z,32.64
2023-04-26T07:58:03.241Z,31.80
2023-04-26T08:00:38.638Z,31.60
2023-04-26T08:04:26.602Z,32.22
2023-04-26T08:08:17.180Z,33.12
2023-04-26T08:12:11.509Z,34.30
2023-04-26T08:16:01.419Z,34.98
2023-04-26T08:19:43.340Z,35.04
2023-04-26T08:23:24.558Z,35.24
2023-04-26T08:27:16.220Z,35.50
2023-04-26T08:31:05.490Z,36.00
2023-04-26T08:34:05.985Z,35.62
2023-04-26T08:36:51.901Z,35.20
2023-04-26T08:39:28.211Z,35.16
2023-04-26T08:42:07.897Z,34.38
2023-04-26T08:44:36.268Z,33.90
2023-04-26T08:47:22.609Z,33.52
2023-04-26T08:50:02.628Z,33.00
2023-04-26T08:52:32.012Z,33.72
2023-04-26T08:55:02.521Z,33.64
2023-04-26T08:57:34.159Z,33.20
2023-04-26T09:00:25.992Z,32.44
2023-04-26T09:02:59.370Z,31.40
2023-04-26T09:05:28.208Z,32.40
2023-04-26T09:08:05.459Z,33.50
2023-04-26T09:10:36.552Z,32.96
2023-04-26T09:13:17.487Z,32.62
2023-04-26T09:15:51.659Z,32.88
2023-04-26T09:18:33.656Z,32.18
2023-04-26T09:21:20.350Z,31.34
2023-04-26T09:24:17.406Z,31.26
2023-04-26T09:27:16.815Z,30.90
2023-04-26T09:30:06.671Z,31.10
2023-04-26T09:33:19.677Z,31.48
2023-04-26T09:35:51.365Z,30.68
2023-04-26T09:38:22.768Z,30.80
2023-04-26T09:40:57.095Z,30.86
2023-04-26T09:43:25.484Z,30.60
2023-04-26T09:46:05.121Z,30.60
2023-04-26T09:48:36.242Z,30.30
2023-04-26T09:51:04.339Z,30.20
2023-04-26T09:53:44.789Z,29.78
2023-04-26T09:56:14.106Z,29.40
2023-04-26T09:58:52.732Z,29.30
2023-04-26T10:01:21.450Z,29.30
2023-04-26T10:03:49.856Z,29.06
2023-04-26T10:06:18.460Z,29.10
2023-04-26T10:08:49.576Z,29.02
2023-04-26T10:11:20.850Z,28.38
2023-04-26T10:13:50.661Z,28.30
2023-04-26T10:16:24.395Z,28.56
2023-04-26T10:18:53.494Z,28.40
2023-04-26T10:21:27.862Z,28.20
2023-04-26T10:23:59.776Z,27.90
2023-04-26T10:26:57.296Z,27.40
2023-04-26T10:29:27.060Z,27.30
2023-04-26T10:32:08.667Z,27.10
2023-04-26T10:35:25.913Z,26.80
2023-04-26T10:38:00.549Z,26.90
2023-04-26T10:40:30.304Z,26.64
2023-04-26T10:43:28.663Z,26.10
2023-04-26T10:46:01.002Z,25.58
2023-04-26T10:48:32.101Z,25.20
2023-04-26T10:51:09.570Z,24.90
2023-04-26T10:53:47.014Z,24.56
2023-04-26T10:56:24.444Z,24.30
2023-04-26T10:59:36.236Z,24.10
2023-04-26T11:02:15.932Z,23.80
2023-04-26T11:05:01.780Z,23.40
2023-04-26T11:07:42.353Z,23.30
2023-04-26T11:10:13.621Z,23.30
2023-04-26T11:12:47.560Z,23.10
2023-04-26T11:15:15.548Z,23.10
2023-04-26T11:17:43.769Z,23.10
2023-04-26T11:20:21.562Z,23.00
2023-04-26T11:22:52.366Z,23.20
2023-04-26T11:25:29.038Z,23.50
2023-04-26T11:28:05.813Z,23.70
2023-04-26T11:30:34.294Z,24.00
2023-04-26T11:33:06.567Z,24.46
2023-04-26T11:35:40.519Z,24.56
2023-04-26T11:38:11.764Z,24.50
2023-04-26T11:40:41.867Z,24.50
2023-04-26T11:43:14.041Z,24.50
2023-04-26T11:45:47.848Z,24.50
2023-04-26T11:48:33.655Z,24.70
2023-04-26T11:51:12.942Z,24.80
2023-04-26T11:53:49.403Z,24.86
2023-04-26T11:56:35.230Z,24.76
2023-04-26T11:59:14.106Z,24.60
2023-04-26T12:02:02.036Z,24.70
2023-04-26T12:04:45.833Z,24.74
2023-04-26T12:07:23.995Z,24.80
2023-04-26T12:10:13.681Z,24.76
2023-04-26T12:12:51.105Z,24.90
2023-04-26T12:15:21.738Z,24.80
2023-04-26T12:18:02.147Z,24.70
2023-04-26T12:20:46.978Z,24.70
2023-04-26T12:23:16.637Z,24.70
2023-04-26T12:25:55.883Z,24.78
2023-04-26T12:28:33.244Z,24.36
2023-04-26T12:31:04.675Z,24.30
2023-04-26T12:33:34.897Z,24.30
2023-04-26T12:36:10.573Z,24.00
2023-04-26T12:38:49.644Z,23.70
2023-04-26T12:41:21.060Z,23.76
2023-04-26T12:43:52.217Z,23.80
2023-04-26T12:46:28.224Z,23.60
2023-04-26T12:48:59.850Z,23.70
2023-04-26T12:51:33.950Z,23.60
2023-04-26T12:54:04.430Z,23.40
2023-04-26T12:56:33.829Z,23.30
2023-04-26T12:59:07.563Z,23.30
2023-04-26T13:01:44.497Z,23.10
2023-04-26T13:04:16.692Z,22.92
2023-04-26T13:06:47.825Z,22.90
2023-04-26T13:09:20.865Z,22.80
2023-04-26T13:11:51.766Z,22.58
2023-04-26T13:14:20.230Z,22.30
2023-04-26T13:16:48.368Z,22.26
2023-04-26T13:19:17.465Z,22.20
2023-04-26T13:21:45.945Z,22.10
2023-04-26T13:24:14.239Z,22.04
2023-04-26T13:26:42.451Z,22.00
2023-04-26T13:29:16.053Z,21.70
2023-04-26T13:31:46.608Z,21.50
2023-04-26T13:34:14.938Z,21.38
2023-04-26T13:36:55.577Z,21.20
2023-04-26T13:39:34.034Z,20.80
2023-04-26T13:42:05.877Z,20.46
2023-04-26T13:44:42.744Z,20.40
2023-04-26T13:47:16.407Z,20.30
2023-04-26T13:49:44.986Z,20.20
2023-04-26T13:52:22.024Z,20.00
2023-04-26T13:55:04.517Z,19.84
2023-04-26T13:57:47.129Z,19.70
2023-04-26T14:00:23.992Z,19.50
2023-04-26T14:03:08.808Z,19.70
2023-04-26T14:05:49.401Z,19.70
2023-04-26T14:08:27.993Z,19.60
2023-04-26T14:11:02.645Z,19.70
2023-04-26T14:13:36.949Z,19.50
2023-04-26T14:16:17.470Z,19.40
2023-04-26T14:18:54.024Z,19.40
2023-04-26T14:21:24.706Z,19.28
2023-04-26T14:23:56.653Z,19.10
2023-04-26T14:26:30.993Z,19.10
2023-04-26T14:29:02.323Z,19.28
2023-04-26T14:31:31.913Z,19.40
2023-04-26T14:34:00.043Z,19.50
2023-04-26T14:36:38.024Z,19.70
2023-04-26T14:39:18.372Z,19.92
2023-04-26T14:41:49.455Z,20.10
2023-04-26T14:44:17.584Z,20.16
2023-04-26T14:46:58.341Z,20.24
2023-04-26T14:49:26.665Z,20.42
2023-04-26T14:52:04.277Z,20.60
2023-04-26T14:54:41.704Z,20.50
2023-04-26T14:57:15.370Z,20.40
2023-04-26T14:59:51.770Z,20.30
2023-04-26T15:02:20.283Z,20.16
2023-04-26T15:04:48.763Z,20.10
2023-04-26T15:07:31.312Z,20.10
2023-04-26T15:10:08.955Z,20.00
2023-04-26T15:12:40.501Z,19.96
2023-04-26T15:15:22.831Z,19.80
2023-04-26T15:17:54.144Z,19.82
2023-04-26T15:20:30.460Z,19.88
2023-04-26T15:23:00.799Z,19.82
2023-04-26T15:25:29.049Z,19.70
2023-04-26T15:28:08.359Z,19.60
2023-04-26T15:30:46.024Z,19.50
2023-04-26T15:33:25.857Z,19.54
2023-04-26T15:36:05.578Z,19.70
2023-04-26T15:38:41.870Z,19.80
2023-04-26T15:41:15.595Z,19.90
2023-04-26T15:43:46.554Z,19.90
2023-04-26T15:46:20.393Z,19.80
2023-04-26T15:48:50.917Z,19.60
2023-04-26T15:51:19.386Z,19.40
2023-04-26T15:53:47.731Z,19.30
2023-04-26T15:56:23.617Z,19.28
2023-04-26T15:59:00.563Z,19.10
2023-04-26T16:01:39.872Z,19.00
2023-04-26T16:04:33.273Z,18.90
2023-04-26T16:07:07.008Z,18.82
2023-04-26T16:09:46.732Z,18.70
2023-04-26T16:12:20.365Z,18.50
2023-04-26T16:14:51.683Z,18.50
2023-04-26T16:17:22.621Z,18.50
2023-04-26T16:19:50.723Z,18.46
2023-04-26T16:22:38.690Z,18.30
2023-04-26T16:25:28.423Z,18.20
2023-04-26T16:28:11.764Z,18.10
2023-04-26T16:30:53.453Z,18.20
2023-04-26T16:33:34.469Z,18.20
2023-04-26T16:36:23.148Z,18.20
2023-04-26T16:39:02.723Z,18.10
2023-04-26T16:41:42.913Z,18.00
2023-04-26T16:44:22.232Z,17.90
2023-04-26T16:46:53.069Z,17.90
2023-04-26T16:49:30.110Z,17.90
2023-04-26T16:52:09.366Z,17.80
2023-04-26T16:54:42.871Z,17.64
2023-04-26T16:57:21.849Z,17.60
2023-04-26T16:59:52.866Z,17.60
2023-04-26T17:02:32.833Z,17.50
2023-04-26T17:05:12.510Z,17.30
2023-04-26T17:08:02.407Z,17.10
2023-04-26T17:10:44.728Z,16.80
2023-04-26T17:13:16.152Z,16.60
2023-04-26T17:15:49.532Z,16.42
2023-04-26T17:18:33.880Z,16.44
2023-04-26T17:21:10.752Z,16.40
2023-04-26T17:23:50.184Z,16.20
2023-04-26T17:26:22.814Z,16.10
2023-04-26T17:29:14.137Z,16.00
2023-04-26T17:31:54.698Z,15.80
2023-04-26T17:35:02.443Z,15.60
2023-04-26T17:37:30.578Z,15.40
2023-04-26T17:40:02.016Z,15.20
2023-04-26T17:42:30.127Z,15.10
2023-04-26T17:45:02.415Z,15.00
2023-04-26T17:47:56.104Z,14.80
2023-04-26T17:50:33.244Z,14.70
2023-04-26T17:53:46.453Z,14.60
2023-04-26T17:56:40.590Z,14.50
2023-04-26T17:59:31.302Z,14.44
2023-04-26T18:02:25.633Z,14.34
2023-04-26T18:05:13.520Z,14.30
2023-04-26T18:07:42.131Z,14.30
2023-04-26T18:10:23.611Z,14.40
2023-04-26T18:12:59.523Z,14.40
2023-04-26T18:15:31.471Z,14.50
2023-04-26T18:18:12.535Z,14.50
2023-04-26T18:20:58.918Z,14.50
2023-04-26T18:23:50.567Z,14.50
2023-04-26T18:26:19.043Z,14.48
2023-04-26T18:28:47.428Z,14.20
2023-04-26T18:31:16.424Z,14.00
2023-04-26T18:33:48.314Z,13.98
2023-04-26T18:36:29.775Z,13.90
2023-04-26T18:39:09.248Z,13.90
2023-04-26T18:41:40.354Z,14.00
2023-04-26T18:44:14.470Z,14.10
2023-04-26T18:46:45.822Z,14.10
2023-04-26T18:49:26.923Z,14.20
2023-04-26T18:52:03.686Z,14.26
2023-04-26T18:54:35.048Z,14.30
2023-04-26T18:57:10.781Z,14.20
2023-04-26T18:59:42.840Z,14.20
2023-04-26T19:02:16.814Z,14.10
2023-04-26T19:04:55.009Z,14.00
2023-04-26T19:07:29.177Z,14.00
2023-04-26T19:10:24.204Z,13.80
2023-04-26T19:13:04.194Z,13.70
2023-04-26T19:15:36.625Z,13.50
2023-04-26T19:18:14.086Z,13.40
2023-04-26T19:20:50.122Z,13.50
2023-04-26T19:23:24.376Z,13.50
2023-04-26T19:25:52.816Z,13.50
2023-04-26T19:28:38.160Z,13.50
2023-04-26T19:31:35.300Z,13.30
2023-04-26T19:34:47.721Z,13.30
2023-04-26T19:38:08.185Z,13.10
2023-04-26T19:41:37.358Z,12.86
2023-04-26T19:45:00.063Z,12.40
2023-04-26T19:48:05.078Z,12.10
2023-04-26T19:51:19.698Z,12.00
2023-04-26T19:54:35.620Z,11.94
2023-04-26T19:57:47.902Z,12.00
2023-04-26T20:00:18.263Z,12.00
2023-04-26T20:03:38.719Z,11.90
2023-04-26T20:06:14.977Z,11.90
2023-04-26T20:08:46.435Z,11.90
2023-04-26T20:12:31.212Z,11.98
2023-04-26T20:15:03.486Z,12.00
2023-04-26T20:17:34.820Z,12.00
2023-04-26T20:20:08.574Z,12.00
2023-04-26T20:22:36.788Z,12.10
2023-04-26T20:25:44.689Z,12.20
2023-04-26T20:28:39.380Z,12.30
2023-04-26T20:31:42.604Z,12.30
2023-04-26T20:35:17.270Z,12.40
2023-04-26T20:38:19.138Z,12.40
2023-04-26T20:40:54.269Z,12.20
2023-04-26T20:44:27.929Z,12.20
2023-04-26T20:47:00.898Z,12.10
2023-04-26T20:50:16.564Z,12.00
2023-04-26T20:53:50.615Z,11.90
2023-04-26T20:56:39.200Z,11.80
2023-04-26T20:59:19.784Z,11.80
2023-04-26T21:02:18.431Z,11.80
2023-04-26T21:05:07.750Z,11.72
2023-04-26T21:08:13.914Z,11.60
2023-04-26T21:10:44.806Z,11.52
2023-04-26T21:13:15.909Z,11.60
2023-04-26T21:15:56.113Z,11.60
2023-04-26T21:18:27.061Z,11.60
2023-04-26T21:21:08.591Z,11.60
2023-04-26T21:23:42.726Z,11.60
2023-04-26T21:26:16.587Z,11.60
2023-04-26T21:28:55.156Z,11.52
2023-04-26T21:31:26.077Z,11.52
2023-04-26T21:34:03.197Z,11.60
2023-04-26T21:36:34.201Z,11.58
2023-04-26T21:39:03.865Z,11.50
2023-04-26T21:41:35.097Z,11.40
2023-04-26T21:44:11.715Z,11.30
2023-04-26T21:46:40.165Z,11.10
2023-04-26T21:49:14.456Z,11.10
2023-04-26T21:51:42.652Z,11.02
2023-04-26T21:54:21.047Z,10.90
2023-04-26T21:56:54.899Z,10.62
2023-04-26T21:59:28.291Z,10.40
2023-04-26T22:01:59.686Z,10.30
2023-04-26T22:04:28.029Z,10.30
2023-04-26T22:06:59.256Z,10.30
2023-04-26T22:09:27.551Z,10.30
2023-04-26T22:12:18.461Z,10.30
2023-04-26T22:14:55.528Z,10.32
2023-04-26T22:17:26.434Z,10.40
2023-04-26T22:19:57.782Z,10.40
2023-04-26T22:22:31.789Z,10.40
2023-04-26T22:25:02.790Z,10.40
2023-04-26T22:27:33.993Z,10.48
2023-04-26T22:30:23.013Z,10.40
2023-04-26T22:33:16.713Z,10.30
2023-04-26T22:36:16.557Z,10.20
2023-04-26T22:38:44.706Z,10.10
2023-04-26T22:41:12.836Z,10.10
2023-04-26T22:43:41.728Z,10.00
2023-04-26T22:46:09.837Z,9.94
2023-04-26T22:48:58.637Z,9.80
2023-04-26T22:51:27.423Z,9.70
2023-04-26T22:53:55.604Z,9.60
2023-04-26T22:56:23.806Z,9.60
2023-04-26T22:58:54.777Z,9.62
2023-04-26T23:01:43.173Z,9.70
2023-04-26T23:04:14.384Z,9.70
2023-04-26T23:06:43.904Z,9.78
2023-04-26T23:09:15.262Z,9.70
2023-04-26T23:11:43.708Z,9.70
2023-04-26T23:14:11.828Z,9.72
2023-04-26T23:16:43.052Z,9.80
2023-04-26T23:19:14.203Z,9.46
2023-04-26T23:21:42.432Z,9.14
2023-04-26T23:24:22.458Z,9.10
2023-04-26T23:26:53.903Z,8.90
2023-04-26T23:29:22.101Z,8.68
2023-04-26T23:31:50.229Z,8.60
2023-04-26T23:34:26.454Z,8.70
2023-04-26T23:37:07.413Z,8.78
2023-04-26T23:39:52.187Z,8.80
2023-04-26T23:42:20.558Z,8.90
2023-04-26T23:45:29.561Z,8.90
2023-04-26T23:48:10.681Z,8.80
2023-04-26T23:50:52.709Z,8.80
2023-04-26T23:54:21.728Z,8.70
2023-04-26T23:57:51.812Z,8.40
